KFRG

Republic Airport

Farmingdale, New York, USA
METAR KFRG 171553Z 19009KT 10SM CLR 28/24 A3007 RMK AO2 SLP181 T02780239
Observed Flight Rules
Aug-17 @ 15:53 UTC (60 minutes ago) Visual Flight Rules
Wind Visibility Clouds
190° at 9 knots 10 miles
  • Clear skies
Temperatures Readings
Current 28°C / 82°F
Dewpoint 24°C / 75°F
Humidity 79%
Altimeter 30.07" Hg
Pressure 1018.1 hPa
Elevation 21
METAR KFRG 171553Z 19009KT 10SM CLR 28/24 A3007 RMK AO2 SLP181 T02780239
Observed Flight Rules
Aug-17 @ 15:53 UTC
(60 minutes ago)
VFR
Wind Visibility
190° at 9 knots 10 miles
Clouds
  • Clear skies
Temperature Dewpoint
28°C / 82°F 24°C / 75°F
Humidity Altimeter Pressure
79% 30.07" Hg 1018.1 hPa